createdAt,value
2022-11-05T00:02:49.362Z,19.77
2022-11-05T00:06:12.684Z,17.00
2022-11-05T00:09:31.038Z,14.57
2022-11-05T00:12:53.528Z,17.00
2022-11-05T00:16:16.416Z,17.27
2022-11-05T00:19:20.331Z,15.82
2022-11-05T00:22:42.879Z,21.05
2022-11-05T00:26:00.219Z,17.23
2022-11-05T00:29:04.402Z,15.55
2022-11-05T00:32:08.232Z,15.02
2022-11-05T00:35:12.261Z,19.25
2022-11-05T00:38:16.490Z,20.10
2022-11-05T00:41:20.397Z,16.73
2022-11-05T00:44:43.178Z,14.73
2022-11-05T00:48:05.956Z,15.50
2022-11-05T00:51:10.154Z,17.25
2022-11-05T00:54:14.027Z,17.77
2022-11-05T00:57:18.119Z,14.40
2022-11-05T01:00:23.303Z,17.55
2022-11-05T01:03:33.362Z,18.08
2022-11-05T01:06:37.208Z,14.13
2022-11-05T01:09:41.047Z,17.17
2022-11-05T01:12:45.061Z,18.08
2022-11-05T01:15:50.747Z,18.90
2022-11-05T01:18:54.872Z,17.67
2022-11-05T01:21:58.932Z,16.65
2022-11-05T01:25:03.780Z,15.95
2022-11-05T01:28:09.449Z,18.35
2022-11-05T01:31:13.667Z,21.95
2022-11-05T01:34:17.576Z,19.60
2022-11-05T01:37:21.647Z,23.25
2022-11-05T01:40:26.178Z,18.60
2022-11-05T01:43:46.050Z,21.60
2022-11-05T01:46:49.818Z,20.13
2022-11-05T01:49:57.287Z,17.08
2022-11-05T01:53:13.211Z,19.40
2022-11-05T01:56:31.878Z,18.80
2022-11-05T01:59:44.027Z,18.40
2022-11-05T02:02:48.300Z,22.08
2022-11-05T02:05:56.506Z,20.58
2022-11-05T02:09:20.046Z,18.63
2022-11-05T02:12:24.232Z,23.77
2022-11-05T02:15:55.183Z,19.65
2022-11-05T02:19:13.234Z,23.55
2022-11-05T02:22:38.712Z,26.40
2022-11-05T02:26:10.696Z,22.98
2022-11-05T02:29:23.802Z,24.48
2022-11-05T02:32:39.591Z,19.77
2022-11-05T02:35:54.356Z,22.83
2022-11-05T02:39:13.417Z,22.05
2022-11-05T02:42:20.523Z,22.10
2022-11-05T02:45:42.835Z,27.00
2022-11-05T02:48:55.091Z,25.65
2022-11-05T02:52:04.382Z,21.73
2022-11-05T02:55:29.565Z,21.75
2022-11-05T02:58:35.388Z,19.13
2022-11-05T03:01:42.175Z,22.00
2022-11-05T03:04:46.258Z,25.13
2022-11-05T03:08:05.419Z,27.30
2022-11-05T03:11:17.560Z,21.20
2022-11-05T03:14:28.806Z,21.20
2022-11-05T03:17:48.529Z,20.85
2022-11-05T03:21:21.631Z,27.92
2022-11-05T03:24:33.070Z,20.70
2022-11-05T03:27:40.780Z,24.77
2022-11-05T03:30:45.753Z,21.48
2022-11-05T03:33:53.161Z,23.05
2022-11-05T03:36:58.287Z,22.33
2022-11-05T03:40:06.145Z,23.05
2022-11-05T03:43:10.352Z,24.23
2022-11-05T03:46:21.968Z,21.00
2022-11-05T03:49:30.081Z,21.25
2022-11-05T03:52:41.689Z,21.77
2022-11-05T03:55:56.656Z,18.15
2022-11-05T03:59:02.917Z,19.35
2022-11-05T04:02:07.257Z,20.13
2022-11-05T04:05:11.798Z,22.42
2022-11-05T04:08:34.348Z,23.63
2022-11-05T04:11:57.029Z,21.35
2022-11-05T04:15:01.227Z,20.80
2022-11-05T04:18:05.160Z,21.60
2022-11-05T04:21:29.002Z,20.73
2022-11-05T04:24:32.968Z,20.92
2022-11-05T04:27:37.282Z,20.10
2022-11-05T04:30:41.375Z,20.70
2022-11-05T04:33:45.407Z,18.35
2022-11-05T04:36:50.412Z,19.63
2022-11-05T04:39:54.265Z,21.25
2022-11-05T04:42:58.443Z,20.40
2022-11-05T04:46:02.544Z,16.98
2022-11-05T04:49:06.305Z,18.67
2022-11-05T04:52:10.136Z,19.52
2022-11-05T04:55:14.039Z,19.58
2022-11-05T04:58:18.060Z,22.75
2022-11-05T05:01:23.381Z,19.73
2022-11-05T05:04:27.542Z,21.23
2022-11-05T05:07:33.113Z,17.52
2022-11-05T05:10:37.228Z,21.77
2022-11-05T05:13:41.785Z,18.35
2022-11-05T05:16:45.990Z,18.98
2022-11-05T05:20:08.304Z,21.42
2022-11-05T05:23:12.447Z,18.63
2022-11-05T05:26:17.073Z,16.48
2022-11-05T05:29:21.321Z,17.63
2022-11-05T05:32:26.016Z,17.20
2022-11-05T05:35:30.351Z,14.43
2022-11-05T05:38:34.123Z,18.17
2022-11-05T05:41:38.134Z,16.80
2022-11-05T05:44:42.484Z,15.73
2022-11-05T05:47:46.283Z,17.73
2022-11-05T05:50:50.017Z,17.55
2022-11-05T05:53:54.846Z,18.15
2022-11-05T05:56:58.659Z,16.20
2022-11-05T06:00:04.429Z,18.38
2022-11-05T06:03:08.304Z,19.85
2022-11-05T06:06:13.560Z,18.77
2022-11-05T06:09:17.233Z,16.42
2022-11-05T06:12:21.002Z,15.52
2022-11-05T06:15:24.749Z,18.27
2022-11-05T06:18:30.284Z,18.85
2022-11-05T06:21:34.315Z,19.70
2022-11-05T06:24:38.181Z,20.65
2022-11-05T06:27:42.059Z,24.63
2022-11-05T06:30:51.692Z,18.98
2022-11-05T06:33:55.655Z,19.48
2022-11-05T06:36:59.570Z,20.58
2022-11-05T06:40:03.948Z,21.80
2022-11-05T06:43:07.983Z,19.63
2022-11-05T06:46:12.340Z,21.85
2022-11-05T06:49:16.483Z,21.30
2022-11-05T06:52:20.494Z,17.23
2022-11-05T06:55:25.525Z,17.60
2022-11-05T06:58:30.849Z,20.33
2022-11-05T07:01:35.515Z,22.55
2022-11-05T07:04:39.630Z,22.58
2022-11-05T07:07:45.107Z,20.45
2022-11-05T07:10:49.187Z,24.02
2022-11-05T07:13:52.739Z,23.40
2022-11-05T07:16:57.234Z,22.30
2022-11-05T07:20:01.479Z,22.05
2022-11-05T07:23:11.432Z,23.30
2022-11-05T07:26:15.499Z,23.30
2022-11-05T07:29:19.671Z,24.85
2022-11-05T07:32:23.935Z,22.65
2022-11-05T07:35:28.479Z,20.60
2022-11-05T07:38:32.375Z,21.98
2022-11-05T07:41:36.204Z,24.58
2022-11-05T07:44:40.353Z,21.60
2022-11-05T07:47:52.831Z,24.48
2022-11-05T07:50:56.981Z,23.40
2022-11-05T07:54:00.774Z,20.88
2022-11-05T07:57:04.875Z,23.90
2022-11-05T08:00:17.139Z,23.67
2022-11-05T08:03:21.229Z,20.05
2022-11-05T08:06:25.894Z,22.88
2022-11-05T08:09:29.838Z,20.98
2022-11-05T08:12:33.876Z,28.42
2022-11-05T08:15:37.834Z,18.30
2022-11-05T08:18:41.957Z,26.65
2022-11-05T08:21:46.304Z,19.58
2022-11-05T08:24:50.128Z,16.85
2022-11-05T08:28:06.559Z,19.33
2022-11-05T08:31:10.526Z,15.90
2022-11-05T08:34:14.634Z,16.92
2022-11-05T08:37:18.525Z,17.77
2022-11-05T08:40:22.220Z,13.68
2022-11-05T08:43:26.344Z,16.27
2022-11-05T08:46:30.635Z,15.52
2022-11-05T08:49:34.436Z,15.60
2022-11-05T08:52:40.380Z,14.70
2022-11-05T08:55:44.714Z,19.65
2022-11-05T08:58:48.460Z,16.73
2022-11-05T09:01:53.104Z,14.98
2022-11-05T09:04:57.608Z,17.05
2022-11-05T09:08:01.804Z,18.08
2022-11-05T09:11:05.872Z,17.55
2022-11-05T09:14:09.821Z,14.48
2022-11-05T09:17:21.784Z,15.50
2022-11-05T09:20:25.712Z,15.43
2022-11-05T09:23:29.603Z,17.75
2022-11-05T09:26:33.671Z,15.30
2022-11-05T09:29:37.744Z,19.35
2022-11-05T09:32:41.669Z,19.58
2022-11-05T09:35:45.632Z,17.13
2022-11-05T09:38:50.055Z,14.90
2022-11-05T09:42:00.556Z,20.33
2022-11-05T09:45:18.342Z,18.00
2022-11-05T09:48:27.641Z,21.77
2022-11-05T09:51:32.589Z,14.18
2022-11-05T09:54:37.657Z,17.35
2022-11-05T09:57:47.081Z,14.80
2022-11-05T10:00:52.787Z,19.23
2022-11-05T10:03:59.639Z,18.73
2022-11-05T10:07:07.315Z,16.48
2022-11-05T10:10:41.129Z,15.45
2022-11-05T10:13:50.459Z,18.25
2022-11-05T10:17:09.460Z,18.63
2022-11-05T10:20:32.447Z,17.75
2022-11-05T10:23:36.515Z,16.35
2022-11-05T10:26:40.422Z,18.80
2022-11-05T10:29:45.046Z,21.83
2022-11-05T10:32:54.128Z,20.38
2022-11-05T10:36:04.887Z,20.23
2022-11-05T10:39:14.718Z,18.33
2022-11-05T10:42:21.489Z,17.45
2022-11-05T10:45:34.972Z,17.55
2022-11-05T10:48:43.956Z,15.43
2022-11-05T10:51:55.533Z,17.88
2022-11-05T10:55:01.608Z,17.42
2022-11-05T10:58:09.723Z,17.75
2022-11-05T11:01:13.812Z,17.80
2022-11-05T11:04:25.046Z,15.20
2022-11-05T11:07:28.892Z,14.15
2022-11-05T11:10:47.920Z,19.75
2022-11-05T11:13:57.927Z,11.70
2022-11-05T11:17:24.500Z,17.65
2022-11-05T11:20:31.349Z,12.65
2022-11-05T11:23:40.889Z,17.55
2022-11-05T11:26:44.759Z,15.23
2022-11-05T11:29:54.959Z,12.32
2022-11-05T11:33:06.198Z,12.93
2022-11-05T11:36:12.185Z,15.00
2022-11-05T11:39:19.936Z,10.00
2022-11-05T11:42:27.333Z,12.68
2022-11-05T11:45:45.524Z,12.05
2022-11-05T11:48:50.136Z,15.10
2022-11-05T11:52:01.487Z,12.27
2022-11-05T11:55:11.623Z,12.95
2022-11-05T11:58:15.862Z,15.88
2022-11-05T12:01:32.304Z,18.90
2022-11-05T12:05:03.439Z,13.43
2022-11-05T12:08:14.440Z,12.77
2022-11-05T12:11:27.937Z,14.05
2022-11-05T12:14:51.823Z,10.73
2022-11-05T12:18:01.745Z,14.25
2022-11-05T12:21:47.733Z,12.57
2022-11-05T12:25:22.704Z,11.00
2022-11-05T12:28:36.039Z,12.10
2022-11-05T12:31:57.883Z,14.93
2022-11-05T12:35:05.059Z,17.58
2022-11-05T12:38:26.201Z,16.17
2022-11-05T12:41:54.925Z,15.23
2022-11-05T12:45:45.436Z,14.10
2022-11-05T12:49:01.807Z,12.70
2022-11-05T12:52:15.151Z,11.80
2022-11-05T12:55:25.320Z,11.30
2022-11-05T12:58:35.497Z,14.73
2022-11-05T13:01:45.599Z,16.35
2022-11-05T13:04:54.195Z,10.52
2022-11-05T13:08:12.993Z,12.13
2022-11-05T13:11:23.872Z,12.25
2022-11-05T13:14:27.905Z,16.65
2022-11-05T13:17:51.261Z,14.52
2022-11-05T13:20:56.600Z,18.35
2022-11-05T13:24:39.045Z,11.52
2022-11-05T13:27:56.571Z,9.07
2022-11-05T13:31:03.384Z,11.82
2022-11-05T13:34:12.334Z,13.15
2022-11-05T13:37:41.054Z,16.95
2022-11-05T13:40:53.642Z,11.70
2022-11-05T13:44:14.571Z,12.05
2022-11-05T13:47:36.589Z,12.23
2022-11-05T13:50:53.046Z,10.20
2022-11-05T13:54:35.091Z,13.10
2022-11-05T13:57:42.095Z,10.20
2022-11-05T14:01:00.915Z,10.80
2022-11-05T14:04:05.485Z,11.75
2022-11-05T14:07:20.874Z,9.75
2022-11-05T14:10:36.112Z,9.90
2022-11-05T14:13:43.841Z,9.15
2022-11-05T14:16:52.027Z,9.68
2022-11-05T14:20:04.802Z,13.23
2022-11-05T14:23:36.242Z,14.27
2022-11-05T14:26:39.989Z,11.32
2022-11-05T14:29:46.036Z,14.73
2022-11-05T14:32:50.941Z,9.70
2022-11-05T14:36:20.348Z,8.27
2022-11-05T14:39:32.240Z,11.20
2022-11-05T14:42:37.248Z,8.98
2022-11-05T14:45:57.581Z,12.68
2022-11-05T14:49:09.051Z,14.15
2022-11-05T14:52:15.248Z,12.68
2022-11-05T14:55:36.566Z,13.57
2022-11-05T14:58:42.811Z,14.75
2022-11-05T15:01:47.447Z,18.35
2022-11-05T15:05:30.590Z,15.65
2022-11-05T15:08:54.639Z,12.68
2022-11-05T15:15:27.790Z,16.92
2022-11-05T15:18:45.633Z,12.75
2022-11-05T15:21:51.191Z,11.90
2022-11-05T15:24:55.523Z,14.50
2022-11-05T15:28:12.628Z,13.63
2022-11-05T15:31:16.571Z,14.88
2022-11-05T15:34:35.572Z,10.57
2022-11-05T15:37:51.736Z,16.80
2022-11-05T15:41:05.278Z,13.55
2022-11-05T15:44:30.975Z,17.00
2022-11-05T15:47:35.190Z,18.00
2022-11-05T15:50:39.906Z,19.15
2022-11-05T15:57:29.693Z,15.52
2022-11-05T16:00:36.448Z,14.77
2022-11-05T16:03:41.622Z,15.65
2022-11-05T16:06:48.691Z,14.10
2022-11-05T16:09:59.553Z,14.27
2022-11-05T16:13:37.021Z,19.55
2022-11-05T16:16:41.504Z,18.13
2022-11-05T16:19:46.633Z,18.77
2022-11-05T16:22:53.798Z,17.83
2022-11-05T16:25:57.780Z,26.08
2022-11-05T16:29:31.248Z,19.67
2022-11-05T16:32:35.415Z,14.55
2022-11-05T16:35:49.076Z,20.85
2022-11-05T16:38:53.295Z,20.50
2022-11-05T16:41:57.629Z,15.80
2022-11-05T16:45:01.882Z,21.02
2022-11-05T16:48:06.421Z,17.55
2022-11-05T16:51:11.616Z,18.73
2022-11-05T16:54:15.460Z,23.27
2022-11-05T16:57:28.796Z,19.10
2022-11-05T17:00:33.421Z,23.02
2022-11-05T17:03:37.430Z,20.75
2022-11-05T17:06:41.155Z,19.20
2022-11-05T17:09:45.256Z,24.92
2022-11-05T17:12:49.401Z,17.35
2022-11-05T17:15:53.304Z,21.90
2022-11-05T17:18:57.898Z,23.80
2022-11-05T17:22:01.852Z,21.05
2022-11-05T17:25:06.136Z,21.42
2022-11-05T17:28:10.817Z,21.25
2022-11-05T17:31:17.249Z,21.00
2022-11-05T17:34:21.440Z,25.75
2022-11-05T17:37:25.710Z,20.50
2022-11-05T17:40:30.392Z,18.77
2022-11-05T17:43:34.443Z,22.02
2022-11-05T17:46:38.187Z,19.77
2022-11-05T17:49:42.196Z,20.42
2022-11-05T17:52:46.463Z,23.38
2022-11-05T17:55:50.647Z,23.25
2022-11-05T17:58:55.411Z,23.35
2022-11-05T18:01:59.360Z,20.15
2022-11-05T18:05:03.735Z,27.70
2022-11-05T18:08:09.009Z,22.38
2022-11-05T18:11:13.289Z,29.45
2022-11-05T18:14:22.814Z,23.85
2022-11-05T18:17:28.008Z,26.60
2022-11-05T18:20:32.202Z,26.80
2022-11-05T18:23:36.318Z,26.67
2022-11-05T18:26:40.585Z,24.13
2022-11-05T18:29:44.409Z,25.85
2022-11-05T18:32:48.286Z,23.27
2022-11-05T18:35:52.383Z,22.33
2022-11-05T18:38:58.652Z,22.85
2022-11-05T18:42:03.880Z,23.33
2022-11-05T18:45:09.657Z,20.40
2022-11-05T18:48:13.669Z,19.33
2022-11-05T18:51:17.915Z,23.60
2022-11-05T18:54:22.047Z,26.33
2022-11-05T18:57:27.025Z,20.30
2022-11-05T19:00:32.040Z,25.10
2022-11-05T19:03:36.236Z,22.45
2022-11-05T19:06:41.140Z,19.17
2022-11-05T19:09:45.234Z,20.60
2022-11-05T19:12:49.283Z,16.42
2022-11-05T19:15:53.718Z,15.43
2022-11-05T19:18:59.697Z,24.50
2022-11-05T19:22:03.877Z,21.13
2022-11-05T19:25:08.094Z,21.05
2022-11-05T19:28:12.607Z,18.73
2022-11-05T19:31:19.608Z,18.88
2022-11-05T19:34:23.881Z,17.35
2022-11-05T19:37:28.375Z,22.35
2022-11-05T19:40:32.531Z,23.67
2022-11-05T19:43:37.591Z,29.48
2022-11-05T19:46:41.610Z,28.98
2022-11-05T19:49:46.257Z,23.38
2022-11-05T19:52:50.392Z,31.98
2022-11-05T19:55:54.735Z,34.25
2022-11-05T19:58:59.522Z,30.27
2022-11-05T20:02:04.407Z,31.60
2022-11-05T20:05:09.183Z,28.30
2022-11-05T20:08:13.514Z,33.20
2022-11-05T20:11:18.552Z,29.50
2022-11-05T20:14:24.592Z,23.83
2022-11-05T20:17:28.818Z,30.45
2022-11-05T20:20:33.041Z,30.52
2022-11-05T20:23:37.303Z,21.27
2022-11-05T20:26:41.642Z,24.02
2022-11-05T20:29:45.572Z,25.38
2022-11-05T20:32:56.002Z,19.85
2022-11-05T20:36:02.762Z,22.63
2022-11-05T20:39:06.951Z,24.48
2022-11-05T20:42:11.152Z,24.40
2022-11-05T20:45:15.361Z,23.20
2022-11-05T20:48:19.173Z,20.80
2022-11-05T20:51:24.376Z,25.08
2022-11-05T20:54:28.125Z,17.10
2022-11-05T20:57:31.892Z,21.52
2022-11-05T21:00:35.829Z,25.58
2022-11-05T21:03:40.161Z,24.13
2022-11-05T21:06:43.990Z,26.15
2022-11-05T21:09:48.054Z,23.75
2022-11-05T21:12:51.805Z,23.92
2022-11-05T21:15:58.366Z,25.55
2022-11-05T21:19:02.888Z,25.25
2022-11-05T21:22:07.302Z,19.75
2022-11-05T21:25:11.774Z,24.05
2022-11-05T21:28:16.409Z,20.25
2022-11-05T21:31:20.518Z,20.80
2022-11-05T21:34:24.515Z,19.40
2022-11-05T21:37:28.700Z,23.80
2022-11-05T21:40:32.892Z,23.30
2022-11-05T21:43:38.619Z,20.10
2022-11-05T21:46:42.800Z,18.92
2022-11-05T21:49:46.840Z,19.67
2022-11-05T21:53:09.526Z,24.73
2022-11-05T21:56:37.913Z,20.77
2022-11-05T21:59:48.260Z,22.77
2022-11-05T22:02:52.276Z,18.85
2022-11-05T22:05:56.594Z,20.55
2022-11-05T22:09:00.393Z,18.27
2022-11-05T22:12:05.134Z,22.05
2022-11-05T22:15:09.568Z,25.33
2022-11-05T22:18:13.803Z,18.70
2022-11-05T22:21:18.640Z,23.30
2022-11-05T22:24:23.168Z,19.75
2022-11-05T22:27:27.462Z,17.52
2022-11-05T22:30:35.406Z,18.23
2022-11-05T22:33:39.115Z,19.80
2022-11-05T22:36:42.968Z,23.20
2022-11-05T22:39:46.868Z,20.05
2022-11-05T22:42:50.885Z,17.70
2022-11-05T22:45:54.844Z,18.17
2022-11-05T22:48:59.823Z,19.02
2022-11-05T22:52:03.847Z,17.25
2022-11-05T22:55:08.253Z,21.48
2022-11-05T22:58:12.438Z,24.40
2022-11-05T23:01:17.598Z,18.95
2022-11-05T23:04:21.411Z,18.45
2022-11-05T23:07:43.788Z,17.52
2022-11-05T23:11:06.694Z,16.58
2022-11-05T23:14:12.898Z,18.00
2022-11-05T23:17:35.469Z,21.40
2022-11-05T23:20:58.386Z,16.67
2022-11-05T23:24:05.551Z,18.30
2022-11-05T23:27:09.954Z,16.33
2022-11-05T23:30:20.481Z,17.45
2022-11-05T23:33:25.194Z,14.80
2022-11-05T23:36:47.880Z,19.10
2022-11-05T23:39:52.129Z,18.98
2022-11-05T23:43:15.780Z,16.80
2022-11-05T23:49:42.517Z,16.48
2022-11-05T23:52:46.414Z,20.42
2022-11-05T23:55:50.752Z,17.05
2022-11-05T23:58:55.071Z,14.35
